Time;durP1;ratioP1;P1;durP2;ratioP2;P2;SDS_P1;SDS_P2;PMS_P1;PMS_P2;Temp;Humidity;BMP_temperature;BMP_pressure;BME280_temperature;BME280_humidity;BME280_pressure;Samples;Min_cycle;Max_cycle;Signal;HPM_P1;HPM_P2
2023/09/26 00:01:28;;;;;;;6.35;4.60;;;;;;;15.66;75.21;101495.28;1656730;86;25522;-53
2023/09/26 00:03:56;;;;;;;7.17;4.55;;;;;;;15.66;75.27;101496.11;1679235;85;25599;-54
2023/09/26 00:06:25;;;;;;;7.25;4.60;;;;;;;15.65;75.36;101499.94;1683973;85;25398;-55
2023/09/26 00:08:52;;;;;;;6.67;4.30;;;;;;;15.65;75.46;101496.41;1684155;85;27171;-53
2023/09/26 00:11:21;;;;;;;6.65;4.42;;;;;;;15.65;75.74;101496.41;1679805;85;25370;-52
2023/09/26 00:13:51;;;;;;;7.85;4.83;;;;;;;15.64;75.84;101490.13;1656940;86;25505;-53
2023/09/26 00:16:18;;;;;;;8.45;4.83;;;;;;;15.64;75.89;101495.59;1656990;86;25613;-53
2023/09/26 00:18:46;;;;;;;10.32;6.47;;;;;;;15.62;75.75;101483.40;1656724;85;25512;-52
2023/09/26 00:21:14;;;;;;;10.30;6.12;;;;;;;15.60;75.86;101490.53;1657145;86;29360;-53
2023/09/26 00:23:41;;;;;;;7.70;5.75;;;;;;;15.58;75.97;101485.95;1655928;86;25731;-52
2023/09/26 00:26:08;;;;;;;10.10;5.45;;;;;;;15.56;76.14;101482.74;1666970;85;25695;-52
2023/09/26 00:28:36;;;;;;;7.67;5.35;;;;;;;15.54;76.01;101484.95;1655802;86;25706;-53
2023/09/26 00:31:04;;;;;;;6.67;4.67;;;;;;;15.51;76.22;101485.61;1666830;85;25723;-54
2023/09/26 00:33:33;;;;;;;8.93;4.80;;;;;;;15.50;76.33;101478.53;1655869;86;27221;-52
2023/09/26 00:36:14;;;;;;;7.42;5.30;;;;;;;15.48;76.26;101480.20;1642579;86;25925;-52
2023/09/26 00:38:39;;;;;;;6.67;5.47;;;;;;;15.47;76.54;101482.67;1671064;85;25421;-53
2023/09/26 00:41:07;;;;;;;12.28;6.00;;;;;;;15.45;76.75;101477.30;1681129;85;27829;-53
2023/09/26 00:43:37;;;;;;;7.60;5.20;;;;;;;15.42;76.85;101475.99;1681803;85;25323;-51
2023/09/26 00:46:08;;;;;;;10.25;4.60;;;;;;;15.41;77.01;101479.03;1660717;85;27933;-51
2023/09/26 00:48:38;;;;;;;7.72;5.20;;;;;;;15.41;76.89;101480.39;1684933;84;26008;-54
2023/09/26 00:51:08;;;;;;;10.18;5.50;;;;;;;15.39;77.10;101473.91;1707159;84;25438;-52
2023/09/26 00:53:39;;;;;;;8.28;6.33;;;;;;;15.40;77.17;101478.80;1707110;84;25667;-50
2023/09/26 00:56:08;;;;;;;6.22;4.80;;;;;;;15.38;77.37;101475.59;1707198;84;25491;-54
2023/09/26 00:58:38;;;;;;;8.33;4.70;;;;;;;15.36;77.17;101472.34;1707259;84;27197;-51
2023/09/26 01:01:08;;;;;;;11.55;5.15;;;;;;;15.34;77.04;101469.13;1707072;84;25490;-54
2023/09/26 01:03:36;;;;;;;9.15;5.40;;;;;;;15.33;77.36;101469.70;1707195;84;25518;-55
2023/09/26 01:06:05;;;;;;;5.78;4.97;;;;;;;15.30;77.22;101468.39;1684954;84;25634;-51
2023/09/26 01:08:32;;;;;;;6.70;5.03;;;;;;;15.29;77.29;101465.44;1707132;84;25552;-52
2023/09/26 01:11:01;;;;;;;7.65;4.70;;;;;;;15.29;77.42;101461.91;1661927;84;27233;-51
2023/09/26 01:13:29;;;;;;;6.58;4.67;;;;;;;15.27;77.42;101458.67;1707017;84;25785;-51
2023/09/26 01:15:57;;;;;;;5.75;4.85;;;;;;;15.27;77.48;101458.14;1707124;84;25504;-51
2023/09/26 01:18:24;;;;;;;6.10;4.65;;;;;;;15.27;77.53;101461.39;1707092;84;25678;-50
2023/09/26 01:20:52;;;;;;;5.97;5.37;;;;;;;15.25;77.62;101461.70;1707142;84;25477;-50
2023/09/26 01:23:23;;;;;;;8.08;5.08;;;;;;;15.23;77.54;101464.52;1707064;84;27214;-50
2023/09/26 01:25:50;;;;;;;5.40;4.45;;;;;;;15.21;77.65;101462.09;1706977;84;27142;-51
2023/09/26 01:28:19;;;;;;;6.62;4.97;;;;;;;15.19;77.58;101460.25;1707136;84;25394;-50
2023/09/26 01:30:47;;;;;;;;;;;;;;;15.17;77.54;101463.02;1709589;84;25617;-51
2023/09/26 01:33:19;;;;;;;6.62;5.20;;;;;;;15.14;77.74;101456.29;1707144;84;25549;-50
2023/09/26 01:35:46;;;;;;;7.80;4.83;;;;;;;15.11;77.66;101460.99;1707229;84;27978;-52
2023/09/26 01:38:17;;;;;;;7.53;4.72;;;;;;;15.09;77.69;101459.94;1706970;84;25408;-53
2023/09/26 01:40:43;;;;;;;8.33;4.33;;;;;;;15.07;77.97;101461.38;1706919;84;25542;-51
2023/09/26 01:43:10;;;;;;;6.50;4.72;;;;;;;15.06;77.94;101462.48;1707058;84;25665;-50
2023/09/26 01:45:38;;;;;;;8.33;5.20;;;;;;;15.05;77.91;101461.69;1707135;84;25364;-53
2023/09/26 01:48:09;;;;;;;7.60;4.53;;;;;;;15.04;78.19;101460.63;1707097;84;27220;-50
2023/09/26 01:50:36;;;;;;;7.10;4.35;;;;;;;15.01;78.00;101453.08;1706891;84;25491;-51
2023/09/26 01:53:05;;;;;;;7.45;5.25;;;;;;;15.00;77.98;101462.35;1707232;84;25341;-50
2023/09/26 01:55:32;;;;;;;7.47;5.47;;;;;;;14.99;78.22;101455.31;1707207;84;25689;-51
2023/09/26 01:58:00;;;;;;;5.00;4.30;;;;;;;14.96;78.02;101451.27;1707342;84;25426;-50
2023/09/26 02:00:29;;;;;;;8.70;4.80;;;;;;;14.93;78.33;101458.16;1707246;84;27207;-51
2023/09/26 02:02:57;;;;;;;8.10;4.58;;;;;;;14.90;78.25;101457.98;1707191;84;25852;-51
2023/09/26 02:05:25;;;;;;;6.33;4.28;;;;;;;14.86;78.37;101459.12;1707266;84;25543;-51
2023/09/26 02:07:52;;;;;;;6.17;4.53;;;;;;;14.84;78.47;101460.00;1707193;84;25679;-51
2023/09/26 02:10:20;;;;;;;5.17;4.47;;;;;;;14.82;78.40;101460.08;1707304;84;25388;-51
2023/09/26 02:12:51;;;;;;;5.12;4.47;;;;;;;14.77;78.47;101461.00;1707293;84;27225;-50
2023/09/26 02:15:20;;;;;;;10.50;4.42;;;;;;;14.75;78.50;101453.70;1707203;84;25328;-50
2023/09/26 02:17:48;;;;;;;9.60;4.85;;;;;;;14.72;78.44;101455.67;1654370;84;25417;-51
2023/09/26 02:20:20;;;;;;;7.97;4.92;;;;;;;14.71;78.78;101454.05;1707203;84;25640;-50
2023/09/26 02:22:51;;;;;;;7.62;4.92;;;;;;;14.66;78.61;101453.64;1707261;84;25391;-51
2023/09/26 02:25:20;;;;;;;8.38;4.55;;;;;;;14.62;78.84;101450.47;1707280;84;27344;-52
2023/09/26 02:27:51;;;;;;;7.22;4.87;;;;;;;14.59;78.86;101453.80;1707234;84;25695;-49
2023/09/26 02:30:26;;;;;;;7.55;4.90;;;;;;;14.55;78.90;101453.58;1707255;84;25505;-49
2023/09/26 02:32:53;;;;;;;7.75;4.30;;;;;;;14.51;79.05;101455.32;1707178;84;25733;-50
2023/09/26 02:35:21;;;;;;;6.33;4.60;;;;;;;14.46;79.03;101458.95;1707274;84;25352;-51
2023/09/26 02:37:48;;;;;;;5.67;4.62;;;;;;;14.42;79.15;101460.69;1707211;84;28233;-51
2023/09/26 02:40:17;;;;;;;5.05;4.55;;;;;;;14.40;79.08;101465.61;1672692;85;25399;-51
2023/09/26 02:42:44;;;;;;;5.70;4.37;;;;;;;14.38;79.19;101467.84;1685340;85;25410;-51
2023/09/26 02:45:15;;;;;;;9.83;4.65;;;;;;;14.35;79.12;101467.09;1685156;85;25629;-51
2023/09/26 02:47:44;;;;;;;4.80;4.25;;;;;;;14.33;79.27;101466.59;1685226;85;25392;-51
2023/09/26 02:50:13;;;;;;;7.67;4.42;;;;;;;14.30;79.43;101465.30;1685288;85;27223;-50
2023/09/26 02:52:43;;;;;;;7.60;4.70;;;;;;;14.28;79.50;101464.78;1660329;85;25584;-51
2023/09/26 02:55:12;;;;;;;6.78;4.35;;;;;;;14.26;79.59;101462.92;1685205;85;25565;-51
2023/09/26 02:57:39;;;;;;;8.80;4.67;;;;;;;14.23;79.62;101464.09;1685153;85;25682;-53
2023/09/26 03:00:19;;;;;;;6.95;4.80;;;;;;;14.21;79.96;101461.67;1661554;85;25340;-54
2023/09/26 03:02:47;;;;;;;7.33;4.97;;;;;;;14.16;79.81;101457.70;1663671;85;27347;-52
2023/09/26 03:05:18;;;;;;;7.67;5.08;;;;;;;14.09;79.84;101464.91;1685275;85;25557;-51
2023/09/26 03:07:45;;;;;;;7.12;4.78;;;;;;;14.05;79.96;101460.41;1685342;85;25545;-51
2023/09/26 03:10:15;;;;;;;5.97;4.60;;;;;;;14.03;80.21;101459.88;1685125;83;26436;-51
2023/09/26 03:12:48;;;;;;;5.55;4.35;;;;;;;14.00;80.23;101459.95;1685154;85;25551;-51
2023/09/26 03:15:18;;;;;;;6.25;4.60;;;;;;;13.99;80.12;101454.24;1685174;85;27981;-51
2023/09/26 03:17:47;;;;;;;7.12;4.47;;;;;;;14.00;80.51;101453.94;1685106;85;25416;-52
2023/09/26 03:20:15;;;;;;;11.70;5.13;;;;;;;14.00;80.43;101455.30;1685435;85;25342;-51
2023/09/26 03:22:44;;;;;;;7.35;4.60;;;;;;;14.00;80.66;101447.14;1685165;85;25679;-51
2023/09/26 03:25:12;;;;;;;6.53;4.60;;;;;;;13.97;80.48;101446.38;1685190;85;25520;-51
2023/09/26 03:27:40;;;;;;;5.85;4.80;;;;;;;13.97;80.44;101448.30;1661288;85;26953;-51
2023/09/26 03:30:09;;;;;;;8.80;5.60;;;;;;;13.97;80.46;101448.30;1685046;85;27201;-53
2023/09/26 03:32:37;;;;;;;7.70;5.10;;;;;;;13.97;80.71;101446.38;1685236;83;25548;-49
2023/09/26 03:35:06;;;;;;;7.90;4.85;;;;;;;13.97;80.63;101445.02;1685126;85;25612;-51
2023/09/26 03:37:34;;;;;;;6.37;5.28;;;;;;;13.96;80.58;101444.79;1685187;85;25349;-49
2023/09/26 03:40:01;;;;;;;5.70;4.50;;;;;;;13.95;80.54;101450.53;1667336;85;27253;-51
2023/09/26 03:42:29;;;;;;;7.92;4.45;;;;;;;13.94;80.62;101445.62;1645726;85;25432;-53
2023/09/26 03:44:56;;;;;;;7.37;4.70;;;;;;;13.93;80.53;101440.52;1674050;85;25343;-50
2023/09/26 03:47:24;;;;;;;4.58;3.98;;;;;;;13.90;80.63;101444.63;1666954;85;25608;-50
2023/09/26 03:49:54;;;;;;;6.50;4.37;;;;;;;13.89;80.56;101437.57;1674210;85;25501;-50
2023/09/26 03:52:22;;;;;;;8.28;4.35;;;;;;;13.88;80.62;101447.42;1674046;85;28039;-50
2023/09/26 03:54:51;;;;;;;6.80;4.37;;;;;;;13.87;80.73;101439.00;1674097;85;25360;-51
2023/09/26 03:57:18;;;;;;;5.78;4.55;;;;;;;13.85;80.78;101440.66;1666887;85;25559;-50
2023/09/26 03:59:50;;;;;;;5.85;4.60;;;;;;;13.82;80.87;101440.72;1674023;84;25597;-50
2023/09/26 04:02:18;;;;;;;6.62;4.97;;;;;;;13.79;80.79;101438.60;1674065;85;25577;-50
2023/09/26 04:04:46;;;;;;;9.50;5.50;;;;;;;13.77;81.06;101431.31;1664209;85;27268;-51
2023/09/26 04:07:13;;;;;;;5.90;4.75;;;;;;;13.76;81.11;101434.33;1663325;85;25519;-51
2023/09/26 04:09:40;;;;;;;5.58;4.60;;;;;;;13.72;81.10;101428.66;1652586;85;25380;-52
2023/09/26 04:12:09;;;;;;;6.35;4.45;;;;;;;13.70;81.06;101428.16;1673976;85;27821;-50
2023/09/26 04:14:37;;;;;;;4.60;4.15;;;;;;;13.67;81.22;101426.05;1672358;85;25547;-51
2023/09/26 04:17:04;;;;;;;7.03;4.55;;;;;;;13.66;81.33;101425.81;1669029;85;27887;-52
2023/09/26 04:19:31;;;;;;;8.10;4.60;;;;;;;13.63;81.57;101423.13;1666855;85;25567;-53
2023/09/26 04:21:58;;;;;;;5.53;4.15;;;;;;;13.62;81.67;101424.78;1674082;85;25400;-52
2023/09/26 04:24:27;;;;;;;5.75;4.78;;;;;;;13.61;81.51;101421.27;1666885;85;25729;-51
2023/09/26 04:26:55;;;;;;;8.70;4.97;;;;;;;13.59;81.66;101424.05;1674189;85;25499;-54
2023/09/26 04:29:23;;;;;;;6.45;4.90;;;;;;;13.58;82.01;101423.23;1674088;85;26926;-50
2023/09/26 04:31:51;;;;;;;5.47;4.85;;;;;;;13.56;82.43;101422.73;1664044;85;25399;-52
2023/09/26 04:34:18;;;;;;;5.90;5.33;;;;;;;13.57;82.48;101426.24;1662809;85;25510;-54
2023/09/26 04:36:45;;;;;;;6.28;5.10;;;;;;;13.58;82.65;101419.71;1665022;85;26204;-54
2023/09/26 04:39:13;;;;;;;8.03;4.95;;;;;;;13.59;82.92;101420.77;1667837;84;25585;-50
2023/09/26 04:41:41;;;;;;;6.30;4.97;;;;;;;13.59;83.26;101418.62;1685408;85;27224;-52
2023/09/26 04:44:09;;;;;;;5.87;4.95;;;;;;;13.61;83.17;101420.47;1684983;85;25491;-50
2023/09/26 04:46:37;;;;;;;6.60;4.87;;;;;;;13.59;83.33;101418.05;1685152;85;25343;-50
2023/09/26 04:49:05;;;;;;;10.25;4.95;;;;;;;13.60;83.76;101415.59;1685059;85;25695;-51
2023/09/26 04:51:32;;;;;;;5.47;4.97;;;;;;;13.62;84.02;101416.63;1685112;85;25486;-52
2023/09/26 04:54:01;;;;;;;9.58;5.62;;;;;;;13.64;84.27;101414.44;1685048;85;27227;-53
2023/09/26 04:56:28;;;;;;;8.48;5.03;;;;;;;13.67;84.61;101408.94;1685322;85;33070;-54
2023/09/26 04:58:55;;;;;;;8.93;5.15;;;;;;;13.73;85.00;101415.89;1685092;85;25513;-51
2023/09/26 05:01:25;;;;;;;6.45;5.40;;;;;;;13.77;85.13;101413.63;1685036;85;25614;-51
2023/09/26 05:03:52;;;;;;;5.15;4.65;;;;;;;13.83;85.40;101425.20;1684908;83;25533;-51
2023/09/26 05:06:20;;;;;;;6.35;5.28;;;;;;;13.89;85.66;101425.33;1673754;85;27824;-51
2023/09/26 05:08:48;;;;;;;7.58;5.72;;;;;;;13.96;85.84;101426.28;1685017;85;25396;-50
2023/09/26 05:11:16;;;;;;;6.90;5.65;;;;;;;14.02;85.97;101425.08;1685090;85;25512;-50
2023/09/26 05:13:45;;;;;;;12.47;5.15;;;;;;;14.08;86.12;101427.95;1684994;85;25565;-52
2023/09/26 05:16:14;;;;;;;9.45;5.10;;;;;;;14.14;86.54;101430.80;1685268;85;25334;-51
2023/09/26 05:18:42;;;;;;;9.90;5.35;;;;;;;14.18;86.23;101425.01;1685245;85;27208;-50
2023/09/26 05:21:11;;;;;;;6.58;4.92;;;;;;;14.24;86.30;101430.34;1685058;85;27210;-49
2023/09/26 05:23:40;;;;;;;6.00;5.00;;;;;;;14.30;86.32;101426.37;1685074;85;25426;-49
2023/09/26 05:26:11;;;;;;;8.30;5.40;;;;;;;14.34;86.35;101430.91;1685060;84;25721;-50
2023/09/26 05:28:40;;;;;;;7.90;5.03;;;;;;;14.42;86.46;101436.19;1685236;85;25349;-49
2023/09/26 05:31:08;;;;;;;8.00;5.10;;;;;;;14.47;86.41;101434.72;1685168;84;27317;-50
2023/09/26 05:33:37;;;;;;;6.42;5.05;;;;;;;14.54;86.54;101441.07;1684974;85;25342;-49
2023/09/26 05:36:06;;;;;;;9.28;4.92;;;;;;;14.61;86.72;101438.78;1685048;85;25468;-49
2023/09/26 05:38:34;;;;;;;;;;;;;;;14.68;86.88;101444.59;1687564;83;26127;-52
2023/09/26 05:41:02;;;;;;;8.80;5.90;;;;;;;14.76;86.92;101438.95;1684809;85;25495;-50
2023/09/26 05:43:30;;;;;;;7.28;5.42;;;;;;;14.82;86.67;101443.73;1684961;85;27229;-51
2023/09/26 05:45:59;;;;;;;8.73;5.40;;;;;;;14.89;86.76;101446.26;1685039;85;25920;-50
2023/09/26 05:48:27;;;;;;;9.80;4.75;;;;;;;14.96;86.93;101443.67;1684908;85;25513;-53
2023/09/26 05:51:03;;;;;;;7.78;5.95;;;;;;;15.03;86.69;101448.12;1660882;85;25623;-50
2023/09/26 05:53:31;;;;;;;8.93;5.65;;;;;;;15.06;86.42;101436.03;1684812;85;25544;-53
2023/09/26 05:55:59;;;;;;;6.92;4.87;;;;;;;15.15;86.76;101442.89;1684791;85;27232;-53
2023/09/26 05:58:27;;;;;;;;;;;;;;;15.19;86.14;101442.53;1687290;85;25585;-51
2023/09/26 06:00:56;;;;;;;5.28;4.78;;;;;;;15.24;86.32;101436.95;1683883;84;25497;-54
2023/09/26 06:03:23;;;;;;;6.97;5.20;;;;;;;15.27;85.92;101434.14;1685024;83;32391;-52
2023/09/26 06:05:51;;;;;;;5.83;5.12;;;;;;;15.30;85.65;101437.05;1684837;85;25517;-55
2023/09/26 06:08:20;;;;;;;5.22;4.70;;;;;;;15.34;85.77;101438.61;1685100;85;28110;-52
2023/09/26 06:10:54;;;;;;;6.42;4.80;;;;;;;15.41;85.65;101436.77;1684820;85;25704;-54
2023/09/26 06:13:23;;;;;;;7.55;4.75;;;;;;;15.45;85.48;101432.31;1684737;85;25346;-52
2023/09/26 06:15:51;;;;;;;7.75;4.90;;;;;;;15.53;85.61;101433.45;1684934;85;25902;-51
2023/09/26 06:18:19;;;;;;;5.37;4.83;;;;;;;15.55;85.26;101436.13;1685091;85;25533;-51
2023/09/26 06:20:46;;;;;;;8.68;5.12;;;;;;;15.59;85.31;101431.64;1684779;84;27193;-55
2023/09/26 06:23:13;;;;;;;6.15;4.67;;;;;;;15.66;85.25;101432.55;1684685;84;25924;-54
2023/09/26 06:25:42;;;;;;;9.25;4.22;;;;;;;15.71;85.25;101425.59;1684808;85;25488;-51
2023/09/26 06:28:10;;;;;;;;;;;;;;;15.76;84.98;101431.50;1687362;85;25551;-53
2023/09/26 06:30:37;;;;;;;6.28;4.90;;;;;;;15.79;84.83;101426.78;1683299;84;25702;-51
2023/09/26 06:33:05;;;;;;;4.80;3.90;;;;;;;15.83;84.45;101430.47;1684848;85;27265;-51
2023/09/26 06:35:32;;;;;;;8.53;5.30;;;;;;;15.83;83.99;101429.11;1683216;85;25780;-52
2023/09/26 06:38:00;;;;;;;6.80;4.50;;;;;;;15.85;84.09;101437.23;1684920;85;25492;-52
2023/09/26 06:40:27;;;;;;;5.70;4.22;;;;;;;15.92;84.51;101437.31;1676220;84;25762;-51
2023/09/26 06:42:56;;;;;;;13.18;5.08;;;;;;;15.97;84.38;101439.89;1669419;85;25507;-51
2023/09/26 06:45:25;;;;;;;10.08;4.42;;;;;;;16.03;84.31;101436.70;1672768;85;27899;-52
2023/09/26 06:47:54;;;;;;;5.95;4.40;;;;;;;16.09;84.20;101436.55;1664140;85;25375;-51
2023/09/26 06:50:22;;;;;;;5.95;4.53;;;;;;;16.14;84.06;101437.22;1672250;85;25515;-52
2023/09/26 06:52:50;;;;;;;7.55;4.22;;;;;;;16.16;83.80;101431.44;1669867;85;25629;-52
2023/09/26 06:55:17;;;;;;;10.23;5.00;;;;;;;16.21;83.85;101440.84;1671619;85;25518;-53
2023/09/26 06:57:44;;;;;;;5.78;4.87;;;;;;;16.23;83.47;101439.38;1674143;85;27798;-54
2023/09/26 07:00:16;;;;;;;10.20;5.28;;;;;;;16.30;83.78;101440.27;1660236;85;25323;-52
2023/09/26 07:02:46;;;;;;;5.28;4.78;;;;;;;16.32;83.66;101439.39;1646931;85;25399;-54
2023/09/26 07:05:15;;;;;;;8.38;5.25;;;;;;;16.38;83.39;101436.75;1674110;85;25613;-54
2023/09/26 07:07:43;;;;;;;6.22;5.22;;;;;;;16.44;83.52;101439.55;1662243;85;25532;-53
2023/09/26 07:10:11;;;;;;;10.58;5.33;;;;;;;16.52;83.56;101443.99;1667083;85;27792;-53
2023/09/26 07:12:39;;;;;;;5.40;4.87;;;;;;;16.59;83.74;101436.11;1652389;85;25683;-52
2023/09/26 07:15:12;;;;;;;12.30;5.15;;;;;;;16.67;83.43;101442.14;1674245;85;29742;-54
2023/09/26 07:17:41;;;;;;;8.35;5.45;;;;;;;16.76;83.78;101438.03;1674151;85;25666;-51
2023/09/26 07:20:13;;;;;;;10.23;5.37;;;;;;;16.84;83.23;101445.97;1667189;85;25560;-55
2023/09/26 07:22:44;;;;;;;9.53;5.67;;;;;;;16.92;82.87;101452.81;1666963;85;27273;-53
2023/09/26 07:25:12;;;;;;;11.57;6.85;;;;;;;16.97;82.61;101451.30;1674074;85;25522;-53
2023/09/26 07:27:40;;;;;;;8.43;6.33;;;;;;;17.04;82.74;101451.36;1666974;85;25559;-51
2023/09/26 07:30:11;;;;;;;9.03;5.92;;;;;;;17.11;82.40;101457.13;1674060;85;25608;-51
2023/09/26 07:32:38;;;;;;;;;;;;;;;17.15;82.22;101454.00;1646739;86;25471;-52
2023/09/26 07:35:08;;;;;;;8.25;6.67;;;;;;;17.21;82.53;101451.88;1661323;85;27279;-55
2023/09/26 07:37:35;;;;;;;11.70;6.28;;;;;;;17.29;82.50;101453.80;1674040;85;25505;-53
2023/09/26 07:40:08;;;;;;;9.90;6.30;;;;;;;17.37;82.55;101448.87;1667451;85;25581;-55
2023/09/26 07:42:37;;;;;;;10.65;7.20;;;;;;;17.43;81.86;101446.75;1680916;85;25759;-53
2023/09/26 07:45:07;;;;;;;12.70;7.20;;;;;;;17.46;81.59;101451.00;1683721;84;25512;-51
2023/09/26 07:47:34;;;;;;;10.72;7.50;;;;;;;17.51;81.72;101448.08;1661194;85;27221;-54
2023/09/26 07:50:03;;;;;;;10.25;6.72;;;;;;;17.55;81.47;101449.05;1684787;85;25934;-51
2023/09/26 07:52:30;;;;;;;12.35;7.60;;;;;;;17.57;81.32;101452.83;1685095;85;25552;-52
2023/09/26 07:54:58;;;;;;;13.55;8.80;;;;;;;17.61;81.35;101448.86;1684915;85;26223;-51
2023/09/26 07:57:26;;;;;;;14.33;7.90;;;;;;;17.63;81.09;101453.44;1684904;85;25472;-53
2023/09/26 07:59:55;;;;;;;11.43;7.50;;;;;;;17.67;81.02;101448.90;1684821;85;27175;-53
2023/09/26 08:02:22;;;;;;;15.98;7.60;;;;;;;17.70;81.06;101451.77;1684971;85;25536;-53
2023/09/26 08:04:49;;;;;;;12.95;7.95;;;;;;;17.72;80.96;101450.08;1660500;85;25359;-53
2023/09/26 08:07:17;;;;;;;14.75;8.28;;;;;;;17.80;81.62;101449.81;1684861;85;26199;-53
2023/09/26 08:09:44;;;;;;;14.90;8.20;;;;;;;17.89;81.21;101449.22;1685122;85;25323;-53
2023/09/26 08:12:11;;;;;;;13.93;7.78;;;;;;;17.93;80.82;101450.18;1684840;84;29500;-54
2023/09/26 08:14:39;;;;;;;13.62;8.78;;;;;;;17.97;80.68;101445.64;1684771;85;25358;-51
2023/09/26 08:17:06;;;;;;;13.83;8.68;;;;;;;17.98;80.47;101446.43;1684874;85;25493;-52
2023/09/26 08:19:33;;;;;;;10.93;7.58;;;;;;;18.02;80.74;101442.70;1684807;84;25678;-52
2023/09/26 08:22:01;;;;;;;22.95;9.70;;;;;;;18.10;80.99;101449.27;1660421;85;25542;-53
2023/09/26 08:24:28;;;;;;;14.28;7.83;;;;;;;18.18;80.97;101452.50;1684888;85;27800;-51
2023/09/26 08:26:55;;;;;;;15.85;8.55;;;;;;;18.27;80.90;101447.78;1684781;85;25402;-52
2023/09/26 08:29:23;;;;;;;13.00;8.38;;;;;;;18.35;80.61;101450.78;1684820;85;25374;-51
2023/09/26 08:31:51;;;;;;;15.40;9.38;;;;;;;18.44;80.72;101455.06;1684855;85;25614;-54
2023/09/26 08:34:21;;;;;;;19.87;9.83;;;;;;;18.51;80.12;101450.97;1684990;84;25420;-51
2023/09/26 08:36:49;;;;;;;15.63;9.70;;;;;;;18.56;79.77;101448.85;1685112;85;27278;-55
2023/09/26 08:39:17;;;;;;;16.97;10.75;;;;;;;18.63;79.70;101449.11;1681116;85;25891;-51
2023/09/26 08:41:47;;;;;;;15.68;10.32;;;;;;;18.66;79.56;101451.73;1666795;85;25381;-54
2023/09/26 08:44:16;;;;;;;15.23;9.95;;;;;;;18.72;79.61;101452.34;1659651;85;25677;-53
2023/09/26 08:46:45;;;;;;;13.38;10.18;;;;;;;18.79;79.79;101451.23;1674308;85;25486;-54
2023/09/26 08:49:13;;;;;;;17.90;11.95;;;;;;;18.85;79.27;101452.66;1650444;85;27143;-51
2023/09/26 08:51:40;;;;;;;29.90;21.80;;;;;;;18.89;79.07;101450.84;1669497;85;25331;-50
2023/09/26 08:54:08;;;;;;;19.15;12.03;;;;;;;18.93;78.88;101444.11;1659827;85;25515;-52
2023/09/26 08:56:36;;;;;;;16.45;10.30;;;;;;;18.97;78.50;101451.33;1674059;84;26515;-53
2023/09/26 08:59:06;;;;;;;21.50;9.95;;;;;;;18.98;78.22;101445.27;1674026;85;25413;-54
2023/09/26 09:01:34;;;;;;;;;;;;;;;18.98;78.14;101445.27;1676533;85;27886;-56
2023/09/26 09:04:03;;;;;;;24.55;12.88;;;;;;;19.02;78.23;101444.26;1666997;85;34741;-51
2023/09/26 09:06:31;;;;;;;16.30;10.72;;;;;;;19.07;78.44;101439.69;1670528;85;29615;-52
2023/09/26 09:09:13;;;;;;;17.10;10.63;;;;;;;19.14;78.21;101441.33;1670969;85;25662;-51
2023/09/26 09:11:40;;;;;;;22.58;12.78;;;;;;;19.21;78.26;101427.27;1669153;84;25328;-51
2023/09/26 09:14:08;;;;;;;25.52;13.25;;;;;;;19.30;78.32;101438.72;1670092;84;27116;-54
2023/09/26 09:16:36;;;;;;;20.23;11.70;;;;;;;19.34;77.75;101433.59;1663016;85;25372;-53
2023/09/26 09:19:03;;;;;;;23.98;14.33;;;;;;;19.38;77.58;101437.23;1664216;85;25339;-53
2023/09/26 09:21:34;;;;;;;20.90;13.65;;;;;;;19.33;77.11;101433.34;1663813;85;25376;-54
2023/09/26 09:24:06;;;;;;;24.05;14.47;;;;;;;19.23;77.15;101439.28;1663611;85;25461;-51
2023/09/26 09:26:36;;;;;;;21.73;14.90;;;;;;;19.22;77.50;101433.55;1661701;85;27178;-51
2023/09/26 09:29:21;;;;;;;23.87;13.08;;;;;;;19.23;77.83;101435.95;1670857;85;25745;-53
2023/09/26 09:31:51;;;;;;;20.75;14.23;;;;;;;19.35;78.84;101428.89;1687281;84;25477;-55
2023/09/26 09:34:23;;;;;;;24.05;15.63;;;;;;;19.55;78.92;101439.55;1672290;85;25638;-53
2023/09/26 09:36:50;;;;;;;23.00;14.55;;;;;;;19.65;77.54;101437.72;1666598;85;25660;-54
2023/09/26 09:39:22;;;;;;;22.48;13.58;;;;;;;19.65;77.43;101431.41;1666862;85;29332;-55
2023/09/26 09:42:01;;;;;;;20.52;13.38;;;;;;;19.81;77.36;101433.73;1645022;86;25720;-52
2023/09/26 09:44:26;;;;;;;24.50;14.20;;;;;;;20.20;78.45;101430.61;1656969;86;25493;-52
2023/09/26 09:47:00;;;;;;;23.30;15.35;;;;;;;20.52;76.93;101437.03;1668643;85;25501;-52
2023/09/26 09:49:32;;;;;;;19.65;13.40;;;;;;;20.71;76.42;101433.66;1662587;85;25348;-56
2023/09/26 09:52:05;;;;;;;19.60;14.35;;;;;;;20.78;74.96;101426.19;1651239;86;28028;-53
2023/09/26 09:54:37;;;;;;;18.20;13.30;;;;;;;21.14;75.55;101429.30;1648442;86;25612;-52
2023/09/26 09:57:10;;;;;;;18.87;13.03;;;;;;;21.52;72.85;101429.87;1632821;87;25564;-54
2023/09/26 09:59:42;;;;;;;21.33;12.82;;;;;;;21.81;72.67;101434.09;1650986;86;26573;-52
2023/09/26 10:02:16;;;;;;;19.48;12.50;;;;;;;21.83;71.24;101429.05;1643397;86;25336;-52
2023/09/26 10:04:47;;;;;;;17.87;13.65;;;;;;;21.94;71.45;101427.90;1631148;87;27789;-52
2023/09/26 10:07:16;;;;;;;20.55;12.95;;;;;;;22.32;72.54;101424.44;1631153;87;25810;-58
2023/09/26 10:09:46;;;;;;;17.75;12.15;;;;;;;23.05;72.27;101414.19;1629458;88;25626;-58
2023/09/26 10:12:15;;;;;;;17.00;12.25;;;;;;;23.78;71.25;101413.61;1633019;87;25662;-59
2023/09/26 10:14:42;;;;;;;18.50;12.30;;;;;;;24.48;69.43;101407.23;1638802;86;25573;-59
2023/09/26 10:17:11;;;;;;;16.10;12.33;;;;;;;24.92;67.93;101413.46;1633558;87;27857;-59
2023/09/26 10:19:39;;;;;;;15.15;11.73;;;;;;;25.38;65.14;101406.77;1635904;86;25490;-59
2023/09/26 10:22:20;;;;;;;16.48;12.40;;;;;;;25.46;62.29;101418.11;1636013;86;25412;-60
2023/09/26 10:24:54;;;;;;;17.62;12.28;;;;;;;25.43;62.03;101415.32;1633452;87;26214;-59
2023/09/26 10:27:38;;;;;;;15.05;11.73;;;;;;;25.47;60.70;101403.67;1629550;88;25487;-58
2023/09/26 10:30:12;;;;;;;13.08;11.25;;;;;;;25.62;61.66;101408.12;1629501;88;27225;-58
2023/09/26 10:32:45;;;;;;;19.20;11.25;;;;;;;25.99;62.11;101396.11;1635211;86;25676;-56
2023/09/26 10:35:26;;;;;;;16.95;11.50;;;;;;;26.51;60.47;101404.25;1651280;86;25392;-57
2023/09/26 10:38:02;;;;;;;17.50;10.70;;;;;;;26.89;59.37;101398.41;1629407;86;26243;-58
2023/09/26 10:40:30;;;;;;;15.35;11.05;;;;;;;27.22;58.07;101398.60;1640805;86;25527;-62
2023/09/26 10:43:00;;;;;;;16.32;10.08;;;;;;;27.74;58.39;101395.41;1645798;86;27215;-59
2023/09/26 10:45:29;;;;;;;12.90;10.60;;;;;;;28.42;57.70;101390.98;1657406;86;25678;-58
2023/09/26 10:47:56;;;;;;;15.98;11.22;;;;;;;28.82;55.57;101385.20;1657489;86;25343;-58
2023/09/26 10:50:24;;;;;;;13.83;10.48;;;;;;;29.35;54.95;101384.59;1657467;86;26279;-58
2023/09/26 10:52:54;;;;;;;68.80;63.87;;;;;;;29.92;52.22;101383.23;1657508;86;25105;-58
2023/09/26 10:55:22;;;;;;;68.25;63.65;;;;;;;29.87;51.50;101376.11;1657419;86;27227;-57
2023/09/26 10:57:51;;;;;;;69.80;64.90;;;;;;;30.06;51.11;101376.69;1657360;86;25492;-57
2023/09/26 11:00:21;;;;;;;68.87;63.98;;;;;;;30.04;49.40;101375.70;1657485;86;25550;-56
2023/09/26 11:02:48;;;;;;;;;;;;;;;30.09;49.55;101373.84;1659894;86;25674;-57
2023/09/26 11:05:17;;;;;;;67.72;63.42;;;;;;;30.16;48.94;101374.36;1657637;86;25351;-56
2023/09/26 11:07:46;;;;;;;;;;;;;;;30.19;49.17;101359.58;1659941;86;27221;-54
2023/09/26 11:10:16;;;;;;;71.20;66.33;;;;;;;30.43;48.88;101362.47;1657445;86;25356;-53
2023/09/26 11:12:45;;;;;;;67.95;63.48;;;;;;;30.48;48.20;101360.61;1657592;86;25562;-52
2023/09/26 11:15:12;;;;;;;;;;;;;;;30.40;47.25;101359.91;1659881;86;25664;-55
2023/09/26 11:17:39;;;;;;;70.72;66.12;;;;;;;30.60;47.56;101364.78;1657560;86;25524;-53
2023/09/26 11:20:11;;;;;;;68.17;63.95;;;;;;;30.77;47.71;101363.74;1657529;86;27914;-52
2023/09/26 11:22:51;;;;;;;68.30;64.03;;;;;;;30.95;47.12;101355.09;1657350;86;26730;-51
2023/09/26 11:25:19;;;;;;;67.55;62.95;;;;;;;31.17;46.96;101356.91;1657561;86;25578;-55
2023/09/26 11:27:48;;;;;;;64.55;60.40;;;;;;;31.35;45.56;101346.03;1657557;86;26383;-57
2023/09/26 11:30:20;;;;;;;;;;;;;;;31.34;45.64;101357.02;1660009;86;25383;-56